createdAt,value
2022-10-03T00:00:21.267Z,97573.34
2022-10-03T00:03:09.901Z,97567.13
2022-10-03T00:06:02.526Z,97578.41
2022-10-03T00:08:51.113Z,97563.94
2022-10-03T00:11:32.534Z,97570.94
2022-10-03T00:14:36.020Z,97551.09
2022-10-03T00:17:39.682Z,97540.31
2022-10-03T00:20:33.126Z,97528.75
2022-10-03T00:23:27.396Z,97520.72
2022-10-03T00:26:30.963Z,97535.56
2022-10-03T00:29:00.990Z,97527.47
2022-10-03T00:31:54.335Z,97523.72
2022-10-03T00:34:36.689Z,97520.78
2022-10-03T00:37:18.844Z,97512.44
2022-10-03T00:39:56.269Z,97513.50
2022-10-03T00:42:54.222Z,97506.53
2022-10-03T00:45:58.705Z,97520.03
2022-10-03T00:48:56.976Z,97510.88
2022-10-03T00:52:00.791Z,97513.09
2022-10-03T00:54:33.863Z,97505.28
2022-10-03T00:57:13.380Z,97506.09
2022-10-03T01:00:09.343Z,97502.09
2022-10-03T01:02:39.486Z,97497.50
2022-10-03T01:05:31.778Z,97493.75
2022-10-03T01:08:24.878Z,97477.09
2022-10-03T01:11:05.378Z,97481.94
2022-10-03T01:14:00.630Z,97482.75
2022-10-03T01:16:53.524Z,97464.94
2022-10-03T01:19:43.356Z,97463.91
2022-10-03T01:22:36.753Z,97457.72
2022-10-03T01:25:19.602Z,97457.19
2022-10-03T01:28:20.488Z,97454.53
2022-10-03T01:30:56.202Z,97438.91
2022-10-03T01:33:33.771Z,97440.22
2022-10-03T01:36:15.170Z,97424.06
2022-10-03T01:38:52.106Z,97410.38
2022-10-03T01:41:22.630Z,97422.50
2022-10-03T01:43:55.811Z,97426.78
2022-10-03T01:46:29.126Z,97431.41
2022-10-03T01:48:56.362Z,97424.38
2022-10-03T01:51:27.557Z,97414.97
2022-10-03T01:54:36.727Z,97419.53
2022-10-03T01:57:22.193Z,97415.78
2022-10-03T02:00:12.373Z,97403.38
2022-10-03T02:02:57.926Z,97407.72
2022-10-03T02:06:13.338Z,97411.47
2022-10-03T02:08:44.411Z,97403.97
2022-10-03T02:11:35.631Z,97402.03
2022-10-03T02:14:13.963Z,97395.31
2022-10-03T02:16:59.863Z,97403.38
2022-10-03T02:19:34.606Z,97406.06
2022-10-03T02:22:03.165Z,97388.31
2022-10-03T02:25:00.189Z,97394.50
2022-10-03T02:28:01.205Z,97384.00
2022-10-03T02:31:32.407Z,97378.34
2022-10-03T02:34:17.346Z,97378.63
2022-10-03T02:36:56.404Z,97368.41
2022-10-03T02:39:45.004Z,97368.41
2022-10-03T02:42:27.241Z,97377.03
2022-10-03T02:45:31.179Z,97376.50
2022-10-03T02:48:32.258Z,97372.72
2022-10-03T02:51:19.126Z,97374.88
2022-10-03T02:54:07.217Z,97358.69
2022-10-03T02:56:47.576Z,97369.22
2022-10-03T02:59:42.837Z,97357.38
2022-10-03T03:06:36.672Z,97363.00
2022-10-03T03:09:34.682Z,97357.91
2022-10-03T03:12:04.686Z,97359.25
2022-10-03T03:14:38.855Z,97351.69
2022-10-03T03:17:31.097Z,97347.94
2022-10-03T03:20:46.363Z,97350.34
2022-10-03T03:23:39.567Z,97341.47
2022-10-03T03:26:58.224Z,97317.75
2022-10-03T03:29:43.817Z,97335.53
2022-10-03T03:32:29.707Z,97340.13
2022-10-03T03:35:24.709Z,97352.25
2022-10-03T03:38:10.443Z,97334.44
2022-10-03T03:40:43.548Z,97345.53
2022-10-03T03:43:16.813Z,97331.22
2022-10-03T03:46:00.564Z,97340.66
2022-10-03T03:48:42.956Z,97342.56
2022-10-03T03:51:23.056Z,97359.53
2022-10-03T03:54:01.935Z,97328.53
2022-10-03T03:56:38.177Z,97321.00
2022-10-03T03:59:14.883Z,97297.25
2022-10-03T04:02:33.478Z,97314.50
2022-10-03T04:05:09.413Z,97318.28
2022-10-03T04:07:51.388Z,97316.41
2022-10-03T04:10:48.821Z,97297.25
2022-10-03T04:13:36.724Z,97295.09
2022-10-03T04:16:45.250Z,97279.47
2022-10-03T04:19:30.498Z,97275.19
2022-10-03T04:22:15.439Z,97267.59
2022-10-03T04:24:48.445Z,97267.59
2022-10-03T04:27:31.835Z,97279.75
2022-10-03T04:30:17.813Z,97259.25
2022-10-03T04:33:13.497Z,97261.66
2022-10-03T04:36:02.252Z,97266.50
2022-10-03T04:38:57.555Z,97264.63
2022-10-03T04:41:43.370Z,97250.03
2022-10-03T04:44:37.426Z,97250.34
2022-10-03T04:47:28.393Z,97250.03
2022-10-03T04:50:28.729Z,97258.94
2022-10-03T04:53:14.160Z,97266.47
2022-10-03T04:55:51.474Z,97250.00
2022-10-03T04:58:41.365Z,97246.19
2022-10-03T05:01:43.759Z,97238.94
2022-10-03T05:04:45.368Z,97239.97
2022-10-03T05:07:25.769Z,97241.59
2022-10-03T05:09:56.948Z,97236.75
2022-10-03T05:12:41.776Z,97237.28
2022-10-03T05:15:18.613Z,97224.28
2022-10-03T05:18:10.455Z,97226.44
2022-10-03T05:20:58.653Z,97225.91
2022-10-03T05:23:55.348Z,97204.25
2022-10-03T05:26:45.244Z,97197.72
2022-10-03T05:29:15.970Z,97205.09
2022-10-03T05:31:45.131Z,97192.94
2022-10-03T05:34:33.314Z,97182.66
2022-10-03T05:37:20.750Z,97177.81
2022-10-03T05:40:16.464Z,97181.53
2022-10-03T05:42:49.483Z,97168.66
2022-10-03T05:45:21.865Z,97168.06
2022-10-03T05:47:59.374Z,97153.50
2022-10-03T05:50:55.159Z,97161.91
2022-10-03T05:53:46.559Z,97148.13
2022-10-03T05:56:30.109Z,97125.44
2022-10-03T05:58:59.608Z,97144.59
2022-10-03T06:02:08.248Z,97139.47
2022-10-03T06:04:55.075Z,97172.22
2022-10-03T06:07:57.665Z,97147.66
2022-10-03T06:10:45.572Z,97162.75
2022-10-03T06:13:30.793Z,97136.06
2022-10-03T06:16:18.812Z,97139.56
2022-10-03T06:18:51.867Z,97142.25
2022-10-03T06:21:51.155Z,97149.78
2022-10-03T06:24:55.098Z,97131.44
2022-10-03T06:27:42.526Z,97120.13
2022-10-03T06:30:34.778Z,97129.00
2022-10-03T06:33:02.238Z,97138.75
2022-10-03T06:35:29.189Z,97128.00
2022-10-03T06:38:29.956Z,97111.06
2022-10-03T06:41:17.252Z,97116.47
2022-10-03T06:44:06.169Z,97120.81
2022-10-03T06:46:45.851Z,97119.75
2022-10-03T06:49:15.542Z,97121.31
2022-10-03T06:52:16.168Z,97118.69
2022-10-03T06:55:04.981Z,97130.84
2022-10-03T06:57:57.446Z,97143.59
2022-10-03T07:01:02.813Z,97140.66
2022-10-03T07:03:38.763Z,97139.88
2022-10-03T07:06:32.079Z,97129.66
2022-10-03T07:09:26.853Z,97136.69
2022-10-03T07:11:56.867Z,97137.50
2022-10-03T07:14:48.320Z,97149.06
2022-10-03T07:17:40.777Z,97148.81
2022-10-03T07:20:45.371Z,97143.97
2022-10-03T07:23:34.167Z,97176.31
2022-10-03T07:26:22.051Z,97138.28
2022-10-03T07:29:07.391Z,97134.50
2022-10-03T07:31:43.852Z,97129.16
2022-10-03T07:34:34.441Z,97138.84
2022-10-03T07:37:42.294Z,97124.25
2022-10-03T07:40:30.099Z,97128.59
2022-10-03T07:43:32.443Z,97134.53
2022-10-03T07:46:27.430Z,97145.31
2022-10-03T07:49:22.330Z,97146.41
2022-10-03T07:52:26.016Z,97144.25
2022-10-03T07:55:20.950Z,97150.78
2022-10-03T07:58:00.622Z,97150.78
2022-10-03T08:00:54.161Z,97157.25
2022-10-03T08:03:41.089Z,97136.50
2022-10-03T08:06:16.671Z,97129.47
2022-10-03T08:09:09.851Z,97141.09
2022-10-03T08:11:53.294Z,97139.47
2022-10-03T08:14:43.520Z,97137.31
2022-10-03T08:17:13.522Z,97140.00
2022-10-03T08:20:09.633Z,97123.31
2022-10-03T08:23:01.133Z,97145.13
2022-10-03T08:25:37.056Z,97130.59
2022-10-03T08:28:20.859Z,97142.16
2022-10-03T08:31:20.202Z,97168.56
2022-10-03T08:34:00.418Z,97158.31
2022-10-03T08:37:04.758Z,97186.84
2022-10-03T08:40:16.016Z,97182.50
2022-10-03T08:43:01.721Z,97192.16
2022-10-03T08:45:40.685Z,97178.75
2022-10-03T08:48:32.563Z,97181.75
2022-10-03T08:51:20.884Z,97177.69
2022-10-03T08:54:09.436Z,97197.06
2022-10-03T08:57:06.416Z,97187.94
2022-10-03T08:59:51.803Z,97198.97
2022-10-03T09:03:02.114Z,97217.47
2022-10-03T09:05:38.904Z,97206.22
2022-10-03T09:09:05.093Z,97218.06
2022-10-03T09:11:54.985Z,97207.28
2022-10-03T09:14:33.129Z,97203.78
2022-10-03T09:17:21.822Z,97201.13
2022-10-03T09:20:13.546Z,97202.19
2022-10-03T09:22:59.276Z,97221.84
2022-10-03T09:25:49.818Z,97218.00
2022-10-03T09:28:38.879Z,97220.16
2022-10-03T09:31:13.732Z,97219.66
2022-10-03T09:33:55.398Z,97217.00
2022-10-03T09:36:53.225Z,97210.56
2022-10-03T09:39:21.222Z,97220.78
2022-10-03T09:42:06.739Z,97222.41
2022-10-03T09:45:10.489Z,97218.13
2022-10-03T09:48:07.788Z,97218.13
2022-10-03T09:50:55.989Z,97229.41
2022-10-03T09:53:44.723Z,97232.66
2022-10-03T09:56:11.745Z,97234.81
2022-10-03T09:59:15.767Z,97231.56
2022-10-03T10:01:53.948Z,97240.19
2022-10-03T10:04:56.002Z,97235.59
2022-10-03T10:07:53.171Z,97240.44
2022-10-03T10:11:10.521Z,97239.63
2022-10-03T10:14:13.172Z,97245.53
2022-10-03T10:16:58.320Z,97271.94
2022-10-03T10:19:56.131Z,97285.44
2022-10-03T10:22:47.249Z,97272.47
2022-10-03T10:25:38.436Z,97295.91
2022-10-03T10:28:14.229Z,97295.31
2022-10-03T10:30:47.054Z,97295.56
2022-10-03T10:33:38.868Z,97290.06
2022-10-03T10:36:43.167Z,97295.97
2022-10-03T10:39:28.063Z,97293.28
2022-10-03T10:45:16.075Z,97290.25
2022-10-03T10:47:50.785Z,97297.03
2022-10-03T10:50:27.818Z,97303.38
2022-10-03T10:53:09.640Z,97301.72
2022-10-03T10:56:09.082Z,97308.91
2022-10-03T10:59:17.793Z,97322.84
2022-10-03T11:01:50.157Z,97316.66
2022-10-03T11:04:47.560Z,97329.63
2022-10-03T11:07:21.028Z,97335.81
2022-10-03T11:10:26.343Z,97363.50
2022-10-03T11:13:35.557Z,97370.13
2022-10-03T11:16:40.757Z,97372.13
2022-10-03T11:19:42.946Z,97382.03
2022-10-03T11:22:48.250Z,97379.88
2022-10-03T11:25:46.697Z,97407.00
2022-10-03T11:28:41.660Z,97415.59
2022-10-03T11:31:45.972Z,97410.59
2022-10-03T11:34:49.962Z,97417.16
2022-10-03T11:38:06.991Z,97409.94
2022-10-03T11:40:52.106Z,97429.44
2022-10-03T11:43:37.424Z,97430.75
2022-10-03T11:46:36.747Z,97440.94
2022-10-03T11:49:36.101Z,97447.56
2022-10-03T11:52:32.048Z,97436.81
2022-10-03T11:55:25.257Z,97471.25
2022-10-03T11:58:03.385Z,97473.38
2022-10-03T12:00:35.487Z,97463.53
2022-10-03T12:03:23.877Z,97469.94
2022-10-03T12:06:14.174Z,97488.59
2022-10-03T12:09:01.256Z,97475.22
2022-10-03T12:11:57.525Z,97556.00
2022-10-03T12:14:46.499Z,97484.78
2022-10-03T12:17:20.586Z,97485.69
2022-10-03T12:20:11.052Z,97516.22
2022-10-03T12:22:51.905Z,97509.50
2022-10-03T12:25:23.432Z,97522.38
2022-10-03T12:28:15.547Z,97516.41
2022-10-03T12:30:48.571Z,97529.66
2022-10-03T12:33:15.536Z,97536.63
2022-10-03T12:35:53.597Z,97549.13
2022-10-03T12:39:03.700Z,97585.88
2022-10-03T12:41:55.511Z,97571.16
2022-10-03T12:45:13.408Z,97621.28
2022-10-03T12:48:18.192Z,97609.88
2022-10-03T12:51:16.076Z,97610.88
2022-10-03T12:54:05.855Z,97634.69
2022-10-03T12:56:49.259Z,97686.38
2022-10-03T12:59:34.674Z,97664.75
2022-10-03T13:02:08.552Z,97650.22
2022-10-03T13:04:53.014Z,97636.25
2022-10-03T13:07:47.135Z,97654.41
2022-10-03T13:10:48.196Z,97657.53
2022-10-03T13:13:27.414Z,97666.84
2022-10-03T13:16:13.562Z,97685.81
2022-10-03T13:18:47.600Z,97670.44
2022-10-03T13:24:22.454Z,97708.00
2022-10-03T13:27:11.144Z,97680.47
2022-10-03T13:29:55.342Z,97686.50
2022-10-03T13:32:36.790Z,97691.88
2022-10-03T13:35:34.741Z,97696.16
2022-10-03T13:38:22.176Z,97698.47
2022-10-03T13:41:01.000Z,97705.69
2022-10-03T13:43:36.372Z,97731.84
2022-10-03T13:46:15.066Z,97691.16
2022-10-03T13:49:02.006Z,97732.78
2022-10-03T13:51:57.334Z,97713.22
2022-10-03T13:54:54.685Z,97738.31
2022-10-03T13:57:33.185Z,97728.75
2022-10-03T14:00:16.316Z,97737.78
2022-10-03T14:02:55.795Z,97780.09
2022-10-03T14:05:41.297Z,97768.09
2022-10-03T14:08:28.719Z,97760.69
2022-10-03T14:11:33.758Z,97772.13
2022-10-03T14:14:11.221Z,97773.97
2022-10-03T14:16:46.987Z,97741.00
2022-10-03T14:19:49.396Z,97797.66
2022-10-03T14:22:51.739Z,97793.19
2022-10-03T14:25:23.269Z,97854.31
2022-10-03T14:28:14.923Z,97799.16
2022-10-03T14:31:07.272Z,97789.63
2022-10-03T14:34:16.095Z,97785.03
2022-10-03T14:36:53.570Z,97782.22
2022-10-03T14:39:58.443Z,97796.59
2022-10-03T14:42:48.871Z,97801.22
2022-10-03T14:45:26.570Z,97808.78
2022-10-03T14:48:03.215Z,97814.13
2022-10-03T14:50:31.965Z,97801.66
2022-10-03T14:53:08.956Z,97814.38
2022-10-03T14:56:05.359Z,97808.72
2022-10-03T14:58:44.471Z,97809.47
2022-10-03T15:01:21.785Z,97812.94
2022-10-03T15:03:51.746Z,97816.50
2022-10-03T15:06:33.259Z,97815.69
2022-10-03T15:09:05.184Z,97819.63
2022-10-03T15:11:44.119Z,97808.34
2022-10-03T15:14:11.423Z,97816.50
2022-10-03T15:16:56.437Z,97826.47
2022-10-03T15:19:23.366Z,97840.19
2022-10-03T15:21:53.262Z,97835.03
2022-10-03T15:24:25.778Z,97826.38
2022-10-03T15:27:01.826Z,97843.22
2022-10-03T15:29:32.471Z,97851.22
2022-10-03T15:32:00.164Z,97843.00
2022-10-03T15:34:33.958Z,97858.81
2022-10-03T15:37:08.137Z,97847.69
2022-10-03T15:39:40.662Z,97866.22
2022-10-03T15:42:10.910Z,97863.41
2022-10-03T15:44:57.097Z,97883.28
2022-10-03T15:47:27.533Z,97859.25
2022-10-03T15:50:27.757Z,97898.28
2022-10-03T15:53:12.508Z,97873.84
2022-10-03T15:56:31.693Z,97868.75
2022-10-03T15:59:07.683Z,97877.06
2022-10-03T16:01:46.646Z,97867.25
2022-10-03T16:04:21.702Z,97867.44
2022-10-03T16:07:20.990Z,97892.19
2022-10-03T16:09:56.821Z,97875.50
2022-10-03T16:13:02.175Z,97887.94
2022-10-03T16:15:37.843Z,97886.19
2022-10-03T16:18:12.601Z,97878.56
2022-10-03T16:20:48.232Z,97894.00
2022-10-03T16:23:22.314Z,97884.31
2022-10-03T16:25:56.903Z,97924.47
2022-10-03T16:28:33.782Z,97897.78
2022-10-03T16:31:12.387Z,97912.75
2022-10-03T16:33:45.476Z,97908.84
2022-10-03T16:36:18.589Z,97894.25
2022-10-03T16:38:53.925Z,97907.72
2022-10-03T16:41:24.376Z,97908.78
2022-10-03T16:43:56.757Z,97919.22
2022-10-03T16:46:25.372Z,97914.03
2022-10-03T16:49:14.675Z,97932.72
2022-10-03T16:51:46.492Z,97937.03
2022-10-03T16:54:17.355Z,97917.09
2022-10-03T16:56:51.347Z,97910.94
2022-10-03T16:59:21.179Z,97926.09
2022-10-03T17:02:03.770Z,97928.03
2022-10-03T17:04:36.335Z,97951.50
2022-10-03T17:07:14.824Z,97931.69
2022-10-03T17:09:50.551Z,97959.66
2022-10-03T17:12:40.109Z,97951.81
2022-10-03T17:15:22.496Z,97949.31
2022-10-03T17:18:08.627Z,97956.34
2022-10-03T17:21:02.017Z,97973.19
2022-10-03T17:23:45.470Z,97977.28
2022-10-03T17:26:50.239Z,97978.91
2022-10-03T17:29:31.024Z,97968.53
2022-10-03T17:32:10.732Z,97954.38
2022-10-03T17:35:07.302Z,97966.22
2022-10-03T17:38:44.679Z,97964.41
2022-10-03T17:41:34.595Z,97970.69
2022-10-03T17:44:19.967Z,97961.31
2022-10-03T17:47:05.218Z,97959.22
2022-10-03T17:50:03.426Z,97975.78
2022-10-03T17:52:32.207Z,97967.38
2022-10-03T17:55:11.118Z,97947.47
2022-10-03T17:57:50.715Z,97967.31
2022-10-03T18:00:23.225Z,97973.59
2022-10-03T18:03:26.119Z,97991.84
2022-10-03T18:05:58.363Z,97987.69
2022-10-03T18:08:45.503Z,98013.34
2022-10-03T18:11:24.978Z,97989.50
2022-10-03T18:14:20.164Z,97981.31
2022-10-03T18:17:08.404Z,97994.97
2022-10-03T18:20:14.502Z,98008.19
2022-10-03T18:22:49.367Z,98018.59
2022-10-03T18:28:48.582Z,98026.16
2022-10-03T18:31:22.428Z,98023.75
2022-10-03T18:34:11.518Z,98033.66
2022-10-03T18:36:52.673Z,98046.41
2022-10-03T18:39:27.008Z,98059.22
2022-10-03T18:42:10.871Z,98035.06
2022-10-03T18:44:49.112Z,98061.84
2022-10-03T18:47:37.980Z,98074.56
2022-10-03T18:50:28.174Z,98077.59
2022-10-03T18:53:21.917Z,98083.72
2022-10-03T18:56:03.979Z,98099.53
2022-10-03T18:58:37.878Z,98079.59
2022-10-03T19:01:28.451Z,98084.94
2022-10-03T19:04:08.617Z,98082.06
2022-10-03T19:06:59.673Z,98095.41
2022-10-03T19:09:48.673Z,98086.34
2022-10-03T19:12:22.165Z,98084.06
2022-10-03T19:14:53.261Z,98088.94
2022-10-03T19:17:49.562Z,98099.56
2022-10-03T19:20:35.454Z,98094.66
2022-10-03T19:23:08.778Z,98091.13
2022-10-03T19:25:38.949Z,98099.03
2022-10-03T19:28:17.653Z,98094.56
2022-10-03T19:30:47.581Z,98099.47
2022-10-03T19:33:22.141Z,98095.78
2022-10-03T19:35:53.076Z,98092.88
2022-10-03T19:38:28.375Z,98092.81
2022-10-03T19:41:07.059Z,98080.72
2022-10-03T19:43:53.075Z,98096.47
2022-10-03T19:46:32.819Z,98112.84
2022-10-03T19:49:20.357Z,98075.50
2022-10-03T19:52:10.406Z,98107.81
2022-10-03T19:54:52.012Z,98120.75
2022-10-03T19:57:39.172Z,98109.00
2022-10-03T20:00:37.347Z,98113.78
2022-10-03T20:03:06.693Z,98115.84
2022-10-03T20:06:24.680Z,98139.25
2022-10-03T20:09:03.359Z,98148.09
2022-10-03T20:11:45.584Z,98135.31
2022-10-03T20:18:25.432Z,98144.25
2022-10-03T20:21:19.574Z,98138.03
2022-10-03T20:24:27.979Z,98162.47
2022-10-03T20:27:14.197Z,98160.22
2022-10-03T20:30:06.125Z,98132.34
2022-10-03T20:32:36.118Z,98164.00
2022-10-03T20:35:03.701Z,98135.47
2022-10-03T20:37:55.446Z,98195.88
2022-10-03T20:40:38.532Z,98146.84
2022-10-03T20:43:53.631Z,98156.34
2022-10-03T20:46:40.773Z,98143.28
2022-10-03T20:49:14.182Z,98133.66
2022-10-03T20:51:50.246Z,98166.38
2022-10-03T20:54:51.101Z,98154.03
2022-10-03T20:57:22.571Z,98159.59
2022-10-03T21:00:00.719Z,98163.91
2022-10-03T21:02:39.644Z,98155.75
2022-10-03T21:05:29.572Z,98152.00
2022-10-03T21:07:59.916Z,98175.50
2022-10-03T21:10:31.673Z,98179.16
2022-10-03T21:13:08.646Z,98175.03
2022-10-03T21:15:51.126Z,98168.44
2022-10-03T21:18:29.161Z,98166.44
2022-10-03T21:21:12.810Z,98181.81
2022-10-03T21:24:05.050Z,98206.94
2022-10-03T21:26:39.467Z,98210.63
2022-10-03T21:29:24.747Z,98178.19
2022-10-03T21:32:13.024Z,98165.44
2022-10-03T21:34:51.339Z,98168.53
2022-10-03T21:37:47.772Z,98170.78
2022-10-03T21:40:51.935Z,98215.22
2022-10-03T21:43:31.994Z,98188.91
2022-10-03T21:46:09.000Z,98195.44
2022-10-03T21:48:51.128Z,98213.59
2022-10-03T21:51:20.893Z,98211.00
2022-10-03T21:54:03.170Z,98223.56
2022-10-03T21:56:53.259Z,98202.97
2022-10-03T21:59:23.474Z,98221.78
2022-10-03T22:02:04.641Z,98214.34
2022-10-03T22:04:45.178Z,98223.38
2022-10-03T22:07:40.794Z,98230.72
2022-10-03T22:10:24.696Z,98246.31
2022-10-03T22:13:04.999Z,98216.31
2022-10-03T22:15:46.874Z,98223.31
2022-10-03T22:18:18.185Z,98232.81
2022-10-03T22:20:54.546Z,98271.94
2022-10-03T22:23:59.911Z,98240.63
2022-10-03T22:26:42.686Z,98231.50
2022-10-03T22:29:30.360Z,98253.56
2022-10-03T22:32:09.420Z,98256.47
2022-10-03T22:35:03.810Z,98242.66
2022-10-03T22:37:33.608Z,98248.44
2022-10-03T22:40:02.018Z,98255.44
2022-10-03T22:42:38.883Z,98238.75
2022-10-03T22:45:07.993Z,98251.38
2022-10-03T22:47:37.577Z,98249.63
2022-10-03T22:50:12.051Z,98271.88
2022-10-03T22:52:43.876Z,98259.16
2022-10-03T22:55:14.584Z,98256.84
2022-10-03T22:57:44.294Z,98255.81
2022-10-03T23:00:23.803Z,98275.66
2022-10-03T23:03:18.556Z,98257.94
2022-10-03T23:05:45.545Z,98266.38
2022-10-03T23:08:35.734Z,98255.44
2022-10-03T23:11:14.334Z,98260.84
2022-10-03T23:13:46.468Z,98260.41
2022-10-03T23:16:34.623Z,98274.88
2022-10-03T23:19:13.754Z,98257.78
2022-10-03T23:21:49.161Z,98270.34
2022-10-03T23:24:27.498Z,98259.31
2022-10-03T23:27:12.986Z,98261.34
2022-10-03T23:29:40.737Z,98254.94
2022-10-03T23:32:11.368Z,98255.66
2022-10-03T23:34:38.185Z,98268.00
2022-10-03T23:37:14.147Z,98278.72
2022-10-03T23:40:04.418Z,98264.72
2022-10-03T23:42:31.810Z,98284.00
2022-10-03T23:45:02.313Z,98258.06
2022-10-03T23:47:38.897Z,98272.41
2022-10-03T23:50:07.863Z,98285.47
2022-10-03T23:52:44.435Z,98267.34
2022-10-03T23:55:20.258Z,98278.66
2022-10-03T23:57:47.786Z,98269.81
